createdAt,value
2018-02-23T00:01:41.876Z,26.10
2018-02-23T00:04:12.683Z,26.20
2018-02-23T00:06:43.119Z,26.30
2018-02-23T00:09:13.321Z,26.60
2018-02-23T00:11:43.954Z,26.40
2018-02-23T00:14:14.277Z,26.40
2018-02-23T00:16:44.678Z,26.60
2018-02-23T00:19:14.867Z,26.50
2018-02-23T00:21:45.649Z,26.60
2018-02-23T00:24:15.575Z,26.50
2018-02-23T00:26:45.817Z,26.60
2018-02-23T00:29:16.089Z,26.70
2018-02-23T00:31:46.234Z,26.90
2018-02-23T00:34:16.701Z,26.70
2018-02-23T00:36:47.764Z,26.90
2018-02-23T00:39:18.529Z,26.90
2018-02-23T00:41:48.683Z,26.60
2018-02-23T00:44:18.609Z,26.80
2018-02-23T00:46:49.851Z,26.80
2018-02-23T00:49:20.688Z,27.10
2018-02-23T00:51:50.777Z,27.10
2018-02-23T00:54:20.909Z,26.80
2018-02-23T00:56:51.111Z,26.70
2018-02-23T00:59:21.322Z,26.80
2018-02-23T01:01:51.226Z,26.90
2018-02-23T01:04:21.123Z,27.10
2018-02-23T01:06:50.847Z,27.20
2018-02-23T01:09:20.577Z,27.20
2018-02-23T01:11:50.997Z,27.30
2018-02-23T01:14:20.729Z,27.40
2018-02-23T01:16:50.448Z,27.70
2018-02-23T01:19:21.288Z,27.70
2018-02-23T01:21:51.530Z,27.70
2018-02-23T01:24:21.813Z,27.90
2018-02-23T01:26:52.259Z,27.90
2018-02-23T01:29:22.426Z,27.80
2018-02-23T01:31:53.421Z,27.90
2018-02-23T01:34:23.378Z,27.90
2018-02-23T01:36:53.367Z,27.70
2018-02-23T01:39:23.608Z,27.60
2018-02-23T01:41:53.890Z,27.60
2018-02-23T01:44:24.110Z,27.80
2018-02-23T01:46:54.195Z,28.10
2018-02-23T01:49:24.143Z,28.00
2018-02-23T01:51:55.266Z,27.90
2018-02-23T01:54:25.401Z,28.10
2018-02-23T01:56:55.440Z,28.30
2018-02-23T01:59:25.282Z,28.50
2018-02-23T02:01:56.188Z,28.50
2018-02-23T02:04:26.599Z,28.50
2018-02-23T02:06:56.424Z,28.50
2018-02-23T02:09:26.487Z,28.70
2018-02-23T02:11:56.837Z,28.80
2018-02-23T02:14:27.401Z,28.70
2018-02-23T02:16:57.604Z,28.60
2018-02-23T02:19:28.026Z,28.50
2018-02-23T02:21:58.232Z,28.30
2018-02-23T02:24:28.393Z,28.20
2018-02-23T02:26:58.682Z,28.20
2018-02-23T02:29:29.048Z,28.40
2018-02-23T02:31:59.271Z,28.70
2018-02-23T02:34:29.590Z,28.70
2018-02-23T02:36:59.739Z,28.80
2018-02-23T02:39:30.820Z,28.90
2018-02-23T02:42:01.261Z,28.90
2018-02-23T02:44:31.382Z,28.90
2018-02-23T02:47:02.169Z,29.20
2018-02-23T02:49:32.392Z,29.50
2018-02-23T02:52:03.070Z,29.50
2018-02-23T02:54:33.675Z,29.10
2018-02-23T02:57:03.827Z,29.10
2018-02-23T02:59:34.033Z,29.00
2018-02-23T03:02:04.072Z,29.20
2018-02-23T03:04:33.897Z,29.50
2018-02-23T03:07:04.116Z,29.50
2018-02-23T03:09:34.009Z,29.50
2018-02-23T03:12:04.625Z,29.50
2018-02-23T03:14:34.722Z,29.40
2018-02-23T03:17:04.846Z,29.10
2018-02-23T03:19:35.101Z,29.30
2018-02-23T03:22:05.301Z,29.40
2018-02-23T03:24:35.355Z,29.30
2018-02-23T03:27:05.647Z,29.30
2018-02-23T03:29:41.505Z,29.50
2018-02-23T03:32:11.746Z,29.50
2018-02-23T03:34:41.897Z,29.40
2018-02-23T03:37:12.870Z,29.50
2018-02-23T03:39:42.986Z,29.50
2018-02-23T03:42:13.260Z,29.70
2018-02-23T03:44:43.758Z,29.70
2018-02-23T03:47:13.785Z,29.40
2018-02-23T03:49:43.741Z,29.50
2018-02-23T03:52:14.759Z,30.10
2018-02-23T03:54:44.858Z,30.10
2018-02-23T03:57:14.926Z,30.70
2018-02-23T03:59:45.951Z,30.70
2018-02-23T04:02:16.771Z,30.80
2018-02-23T04:04:47.056Z,30.80
2018-02-23T04:07:16.864Z,31.00
2018-02-23T04:09:47.191Z,30.60
2018-02-23T04:12:17.206Z,30.70
2018-02-23T04:14:47.545Z,30.40
2018-02-23T04:17:17.569Z,30.70
2018-02-23T04:19:47.977Z,30.70
2018-02-23T04:22:17.913Z,30.60
2018-02-23T04:24:48.243Z,30.80
2018-02-23T04:27:18.498Z,30.60
2018-02-23T04:29:49.456Z,30.80
2018-02-23T04:32:19.427Z,30.80
2018-02-23T04:34:49.595Z,30.60
2018-02-23T04:37:19.662Z,30.80
2018-02-23T04:39:50.143Z,30.90
2018-02-23T04:42:20.083Z,30.70
2018-02-23T04:44:50.377Z,30.80
2018-02-23T04:47:20.551Z,30.90
2018-02-23T04:49:51.701Z,30.90
2018-02-23T04:52:21.501Z,31.00
2018-02-23T04:54:51.714Z,30.70
2018-02-23T04:57:21.559Z,30.90
2018-02-23T04:59:51.958Z,31.30
2018-02-23T05:02:22.110Z,31.20
2018-02-23T05:04:52.941Z,31.30
2018-02-23T05:07:23.134Z,31.20
2018-02-23T05:09:53.257Z,31.30
2018-02-23T05:12:23.582Z,31.20
2018-02-23T05:14:53.868Z,31.10
2018-02-23T05:17:24.132Z,31.30
2018-02-23T05:19:54.958Z,31.30
2018-02-23T05:22:25.158Z,31.20
2018-02-23T05:24:55.223Z,31.10
2018-02-23T05:27:25.346Z,31.00
2018-02-23T05:29:56.314Z,31.10
2018-02-23T05:32:26.451Z,31.00
2018-02-23T05:34:56.901Z,31.40
2018-02-23T05:37:27.037Z,31.30
2018-02-23T05:39:57.850Z,31.40
2018-02-23T05:42:28.066Z,31.40
2018-02-23T05:44:58.082Z,31.20
2018-02-23T05:47:28.131Z,31.30
2018-02-23T05:49:58.014Z,31.50
2018-02-23T05:52:28.079Z,31.40
2018-02-23T05:54:58.927Z,31.00
2018-02-23T05:57:30.148Z,30.90
2018-02-23T06:00:00.081Z,30.90
2018-02-23T06:02:31.265Z,30.90
2018-02-23T06:05:01.344Z,30.90
2018-02-23T06:07:31.217Z,30.90
2018-02-23T06:10:01.343Z,31.10
2018-02-23T06:12:31.573Z,31.30
2018-02-23T06:15:02.273Z,31.30
2018-02-23T06:17:37.478Z,31.10
2018-02-23T06:20:10.326Z,31.40
2018-02-23T06:22:40.704Z,31.30
2018-02-23T06:25:11.262Z,31.50
2018-02-23T06:27:41.495Z,31.30
2018-02-23T06:30:11.704Z,31.30
2018-02-23T06:32:42.040Z,31.50
2018-02-23T06:35:12.368Z,31.50
2018-02-23T06:37:42.373Z,31.50
2018-02-23T06:40:12.307Z,31.30
2018-02-23T06:42:42.419Z,31.30
2018-02-23T06:45:12.726Z,31.30
2018-02-23T06:47:42.935Z,31.50
2018-02-23T06:50:13.090Z,31.50
2018-02-23T06:52:43.206Z,31.70
2018-02-23T06:55:13.217Z,31.70
2018-02-23T06:57:44.530Z,31.80
2018-02-23T07:00:14.333Z,31.80
2018-02-23T07:02:45.293Z,31.50
2018-02-23T07:05:15.423Z,31.50
2018-02-23T07:07:45.752Z,31.20
2018-02-23T07:10:16.570Z,31.50
2018-02-23T07:12:46.926Z,31.40
2018-02-23T07:15:16.955Z,31.50
2018-02-23T07:17:47.229Z,31.50
2018-02-23T07:20:17.674Z,31.50
2018-02-23T07:22:48.671Z,31.40
2018-02-23T07:25:19.670Z,31.40
2018-02-23T07:27:49.805Z,31.30
2018-02-23T07:30:20.198Z,31.40
2018-02-23T07:32:50.438Z,31.50
2018-02-23T07:35:20.570Z,31.30
2018-02-23T07:37:50.732Z,31.10
2018-02-23T07:40:21.090Z,31.10
2018-02-23T07:42:52.340Z,31.10
2018-02-23T07:45:22.542Z,31.10
2018-02-23T07:47:52.871Z,31.10
2018-02-23T07:50:23.406Z,31.30
2018-02-23T07:52:53.582Z,31.40
2018-02-23T07:55:27.694Z,31.60
2018-02-23T07:57:58.577Z,31.40
2018-02-23T08:00:28.683Z,31.40
2018-02-23T08:02:58.744Z,31.30
2018-02-23T08:05:28.935Z,31.30
2018-02-23T08:08:05.047Z,31.40
2018-02-23T08:10:36.054Z,31.40
2018-02-23T08:13:06.265Z,31.40
2018-02-23T08:15:36.682Z,31.30
2018-02-23T08:18:07.169Z,31.30
2018-02-23T08:20:38.246Z,31.30
2018-02-23T08:23:08.470Z,31.30
2018-02-23T08:25:38.213Z,31.20
2018-02-23T08:28:08.906Z,31.20
2018-02-23T08:30:39.274Z,31.30
2018-02-23T08:33:09.364Z,31.30
2018-02-23T08:35:39.204Z,31.40
2018-02-23T08:38:09.552Z,31.40
2018-02-23T08:40:40.505Z,31.50
2018-02-23T08:43:11.299Z,31.40
2018-02-23T08:45:41.634Z,31.40
2018-02-23T08:48:12.858Z,31.60
2018-02-23T08:50:42.973Z,31.50
2018-02-23T08:53:13.107Z,31.50
2018-02-23T08:55:43.341Z,31.50
2018-02-23T08:58:14.015Z,31.40
2018-02-23T09:00:50.066Z,31.30
2018-02-23T09:03:20.964Z,31.30
2018-02-23T09:05:51.161Z,31.20
2018-02-23T09:08:21.307Z,31.20
2018-02-23T09:10:51.578Z,31.20
2018-02-23T09:13:21.808Z,31.10
2018-02-23T09:15:52.504Z,31.10
2018-02-23T09:18:23.723Z,31.20
2018-02-23T09:20:53.613Z,31.20
2018-02-23T09:23:23.783Z,31.10
2018-02-23T09:25:54.668Z,30.60
2018-02-23T09:28:24.913Z,30.60
2018-02-23T09:30:55.023Z,30.10
2018-02-23T09:33:31.121Z,30.10
2018-02-23T09:36:02.330Z,30.20
2018-02-23T09:38:32.354Z,30.20
2018-02-23T09:41:02.404Z,30.30
2018-02-23T09:43:33.699Z,30.20
2018-02-23T09:46:03.720Z,30.20
2018-02-23T09:48:33.720Z,30.10
2018-02-23T09:51:04.002Z,29.90
2018-02-23T09:53:35.107Z,29.90
2018-02-23T09:56:04.879Z,29.90
2018-02-23T09:58:35.150Z,30.10
2018-02-23T10:01:05.646Z,30.10
2018-02-23T10:03:36.067Z,30.10
2018-02-23T10:06:06.342Z,30.00
2018-02-23T10:08:36.447Z,29.90
2018-02-23T10:11:06.774Z,29.90
2018-02-23T10:13:36.945Z,29.90
2018-02-23T10:16:07.901Z,29.70
2018-02-23T10:18:39.087Z,29.70
2018-02-23T10:21:09.798Z,29.70
2018-02-23T10:23:39.840Z,29.70
2018-02-23T10:26:10.151Z,29.70
2018-02-23T10:28:40.371Z,29.70
2018-02-23T10:31:10.489Z,29.80
2018-02-23T10:33:41.432Z,29.80
2018-02-23T10:36:12.058Z,29.80
2018-02-23T10:38:42.434Z,29.50
2018-02-23T10:41:13.388Z,29.20
2018-02-23T10:43:44.066Z,29.20
2018-02-23T10:46:13.977Z,28.50
2018-02-23T10:48:43.888Z,27.50
2018-02-23T10:51:14.654Z,27.20
2018-02-23T10:53:45.410Z,27.50
2018-02-23T10:56:18.297Z,27.50
2018-02-23T10:58:48.711Z,27.40
2018-02-23T11:01:19.503Z,28.40
2018-02-23T11:03:49.639Z,28.30
2018-02-23T11:06:19.398Z,27.90
2018-02-23T11:08:49.356Z,28.20
2018-02-23T11:11:19.752Z,28.20
2018-02-23T11:13:49.999Z,28.40
2018-02-23T11:16:20.127Z,28.00
2018-02-23T11:18:50.317Z,28.30
2018-02-23T11:21:20.939Z,28.50
2018-02-23T11:23:50.974Z,28.40
2018-02-23T11:26:21.572Z,28.40
2018-02-23T11:28:51.930Z,28.40
2018-02-23T11:31:22.275Z,28.40
2018-02-23T11:33:52.686Z,28.30
2018-02-23T11:36:23.607Z,28.20
2018-02-23T11:38:54.193Z,28.10
2018-02-23T11:41:25.124Z,27.80
2018-02-23T11:43:55.325Z,27.80
2018-02-23T11:46:26.566Z,27.60
2018-02-23T11:48:57.907Z,27.70
2018-02-23T11:51:28.129Z,27.80
2018-02-23T11:53:58.568Z,28.10
2018-02-23T11:56:28.819Z,28.10
2018-02-23T11:58:59.822Z,27.50
2018-02-23T12:01:30.050Z,27.50
2018-02-23T12:04:00.849Z,27.70
2018-02-23T12:06:31.000Z,27.90
2018-02-23T12:09:01.059Z,27.90
2018-02-23T12:11:31.833Z,27.70
2018-02-23T12:14:02.461Z,27.70
2018-02-23T12:16:33.236Z,27.90
2018-02-23T12:19:03.401Z,27.50
2018-02-23T12:21:33.644Z,27.80
2018-02-23T12:24:03.985Z,27.80
2018-02-23T12:26:34.086Z,27.90
2018-02-23T12:29:04.466Z,27.90
2018-02-23T12:31:34.765Z,27.90
2018-02-23T12:34:05.624Z,27.80
2018-02-23T12:36:36.224Z,27.70
2018-02-23T12:39:07.075Z,27.70
2018-02-23T12:41:37.685Z,27.80
2018-02-23T12:44:08.074Z,27.90
2018-02-23T12:46:38.143Z,27.90
2018-02-23T12:49:08.334Z,27.80
2018-02-23T12:51:38.471Z,27.80
2018-02-23T12:54:08.656Z,27.80
2018-02-23T12:56:38.709Z,27.70
2018-02-23T12:59:08.822Z,27.70
2018-02-23T13:01:40.134Z,27.60
2018-02-23T13:04:10.094Z,27.60
2018-02-23T13:06:40.065Z,27.60
2018-02-23T13:09:12.010Z,27.30
2018-02-23T13:11:43.117Z,27.00
2018-02-23T13:14:13.432Z,26.90
2018-02-23T13:16:47.030Z,26.60
2018-02-23T13:19:17.564Z,26.80
2018-02-23T13:21:49.278Z,26.90
2018-02-23T13:24:23.376Z,26.90
2018-02-23T13:26:58.408Z,26.50
2018-02-23T13:29:28.894Z,26.40
2018-02-23T13:32:00.055Z,26.70
2018-02-23T13:34:31.849Z,26.70
2018-02-23T13:37:02.355Z,27.20
2018-02-23T13:39:33.010Z,27.40
2018-02-23T13:42:04.876Z,27.40
2018-02-23T13:44:35.549Z,27.40
2018-02-23T13:47:06.523Z,27.40
2018-02-23T13:49:36.882Z,27.40
2018-02-23T13:52:08.436Z,27.40
2018-02-23T13:54:38.706Z,27.40
2018-02-23T13:57:09.362Z,27.50
2018-02-23T13:59:42.140Z,27.30
2018-02-23T14:02:14.540Z,27.40
2018-02-23T14:04:45.015Z,27.40
2018-02-23T14:07:20.797Z,27.50
2018-02-23T14:09:52.010Z,27.10
2018-02-23T14:12:22.267Z,27.10
2018-02-23T14:14:53.910Z,27.10
2018-02-23T14:17:24.206Z,27.10
2018-02-23T14:19:54.135Z,27.00
2018-02-23T14:22:24.587Z,26.90
2018-02-23T14:24:55.479Z,27.00
2018-02-23T14:27:25.825Z,27.00
2018-02-23T14:29:55.655Z,26.90
2018-02-23T14:32:26.572Z,27.00
2018-02-23T14:34:56.717Z,27.00
2018-02-23T14:37:27.717Z,27.10
2018-02-23T14:39:58.265Z,27.00
2018-02-23T14:42:28.582Z,27.00
2018-02-23T14:45:00.083Z,26.90
2018-02-23T14:47:30.257Z,26.90
2018-02-23T14:50:12.183Z,27.20
2018-02-23T14:52:42.494Z,27.30
2018-02-23T14:55:12.375Z,27.30
2018-02-23T14:57:42.806Z,27.30
2018-02-23T15:00:13.225Z,27.10
2018-02-23T15:02:43.118Z,27.20
2018-02-23T15:05:14.051Z,26.90
2018-02-23T15:07:44.129Z,26.80
2018-02-23T15:10:15.023Z,26.90
2018-02-23T15:12:45.076Z,26.90
2018-02-23T15:15:15.186Z,27.10
2018-02-23T15:17:45.393Z,27.00
2018-02-23T15:20:15.630Z,26.90
2018-02-23T15:22:45.758Z,26.70
2018-02-23T15:25:15.969Z,26.70
2018-02-23T15:27:47.432Z,26.90
2018-02-23T15:30:29.420Z,27.10
2018-02-23T15:32:59.536Z,27.20
2018-02-23T15:35:29.780Z,27.20
2018-02-23T15:38:00.189Z,27.10
2018-02-23T15:40:36.042Z,27.10
2018-02-23T15:43:06.158Z,27.20
2018-02-23T15:45:37.431Z,27.20
2018-02-23T15:51:26.703Z,26.70
2018-02-23T15:53:57.433Z,27.10
2018-02-23T15:56:28.191Z,27.10
2018-02-23T15:58:58.340Z,27.10
2018-02-23T16:01:29.454Z,27.20
2018-02-23T16:03:59.741Z,27.20
2018-02-23T16:06:30.137Z,27.10
2018-02-23T16:09:00.553Z,27.00
2018-02-23T16:11:31.662Z,26.90
2018-02-23T16:14:02.250Z,26.90
2018-02-23T16:16:32.832Z,27.10
2018-02-23T16:19:03.946Z,27.10
2018-02-23T16:21:34.390Z,27.10
2018-02-23T16:24:04.377Z,27.00
2018-02-23T16:26:34.393Z,27.00
2018-02-23T16:29:04.798Z,27.10
2018-02-23T16:31:34.874Z,27.20
2018-02-23T16:34:05.149Z,27.20
2018-02-23T16:36:35.381Z,27.10
2018-02-23T16:39:05.865Z,27.10
2018-02-23T16:41:36.959Z,27.00
2018-02-23T16:44:07.914Z,27.00
2018-02-23T16:46:37.995Z,27.00
2018-02-23T16:49:08.380Z,27.00
2018-02-23T16:51:39.466Z,27.10
2018-02-23T16:54:09.648Z,27.10
2018-02-23T16:56:40.644Z,26.80
2018-02-23T16:59:11.831Z,26.80
2018-02-23T17:01:42.039Z,26.50
2018-02-23T17:04:12.378Z,26.40
2018-02-23T17:06:43.386Z,26.70
2018-02-23T17:09:13.539Z,26.70
2018-02-23T17:11:44.546Z,27.10
2018-02-23T17:14:14.657Z,27.00
2018-02-23T17:16:44.963Z,27.00
2018-02-23T17:19:15.096Z,26.90
2018-02-23T17:21:45.769Z,26.90
2018-02-23T17:24:16.025Z,26.90
2018-02-23T17:26:46.389Z,26.80
2018-02-23T17:29:16.655Z,26.80
2018-02-23T17:31:47.554Z,26.70
2018-02-23T17:34:18.707Z,26.50
2018-02-23T17:36:49.063Z,26.50
2018-02-23T17:39:19.945Z,26.50
2018-02-23T17:41:50.081Z,26.50
2018-02-23T17:44:20.994Z,26.50
2018-02-23T17:46:51.326Z,26.50
2018-02-23T17:49:21.341Z,26.60
2018-02-23T17:51:51.682Z,26.60
2018-02-23T17:54:21.796Z,26.70
2018-02-23T17:56:52.129Z,26.70
2018-02-23T17:59:22.848Z,26.60
2018-02-23T18:01:53.040Z,26.80
2018-02-23T18:04:23.170Z,26.60
2018-02-23T18:06:53.514Z,26.50
2018-02-23T18:09:23.456Z,26.70
2018-02-23T18:11:53.848Z,26.70
2018-02-23T18:14:24.074Z,26.50
2018-02-23T18:16:53.839Z,26.50
2018-02-23T18:19:24.833Z,26.60
2018-02-23T18:21:55.030Z,26.50
2018-02-23T18:24:25.113Z,26.50
2018-02-23T18:26:55.842Z,26.40
2018-02-23T18:29:25.629Z,26.40
2018-02-23T18:31:56.090Z,26.40
2018-02-23T18:34:26.989Z,26.90
2018-02-23T18:36:57.311Z,26.90
2018-02-23T18:39:27.853Z,26.80
2018-02-23T18:41:58.649Z,26.40
2018-02-23T18:44:28.751Z,26.40
2018-02-23T18:46:59.696Z,26.70
2018-02-23T18:49:29.566Z,26.60
2018-02-23T18:51:59.873Z,26.70
2018-02-23T18:54:30.298Z,26.50
2018-02-23T18:57:00.313Z,26.60
2018-02-23T18:59:30.608Z,26.40
2018-02-23T19:02:00.926Z,26.30
2018-02-23T19:04:31.091Z,26.30
2018-02-23T19:07:01.491Z,26.50
2018-02-23T19:09:32.075Z,26.50
2018-02-23T19:12:03.186Z,26.80
2018-02-23T19:14:33.200Z,26.80
2018-02-23T19:17:03.629Z,26.80
2018-02-23T19:19:34.879Z,26.80
2018-02-23T19:22:04.694Z,26.80
2018-02-23T19:24:34.455Z,26.80
2018-02-23T19:27:04.732Z,26.60
2018-02-23T19:29:35.102Z,26.50
2018-02-23T19:32:05.017Z,26.50
2018-02-23T19:34:35.393Z,26.50
2018-02-23T19:37:06.466Z,26.30
2018-02-23T19:39:37.457Z,26.30
2018-02-23T19:42:07.480Z,26.30
2018-02-23T19:44:38.362Z,26.50
2018-02-23T19:47:09.596Z,26.70
2018-02-23T19:49:40.494Z,26.70
2018-02-23T19:52:11.308Z,26.70
2018-02-23T19:54:41.836Z,26.60
2018-02-23T19:57:12.306Z,26.30
2018-02-23T19:59:42.699Z,26.60
2018-02-23T20:02:13.511Z,26.60
2018-02-23T20:04:43.521Z,26.60
2018-02-23T20:07:14.402Z,26.60
2018-02-23T20:09:44.542Z,26.60
2018-02-23T20:12:14.805Z,26.70
2018-02-23T20:14:45.701Z,26.60
2018-02-23T20:17:15.813Z,26.60
2018-02-23T20:19:46.028Z,26.70
2018-02-23T20:22:16.153Z,26.50
2018-02-23T20:24:46.119Z,26.60
2018-02-23T20:27:17.426Z,26.20
2018-02-23T20:29:47.516Z,26.20
2018-02-23T20:32:17.821Z,26.50
2018-02-23T20:34:48.118Z,26.50
2018-02-23T20:37:18.821Z,26.80
2018-02-23T20:39:48.891Z,26.80
2018-02-23T20:42:18.850Z,26.70
2018-02-23T20:44:49.099Z,26.60
2018-02-23T20:47:19.809Z,26.20
2018-02-23T20:49:50.367Z,26.20
2018-02-23T20:52:21.141Z,26.50
2018-02-23T20:54:51.185Z,26.40
2018-02-23T20:57:21.072Z,26.60
2018-02-23T20:59:51.838Z,26.70
2018-02-23T21:02:21.754Z,26.50
2018-02-23T21:04:51.862Z,26.40
2018-02-23T21:07:21.920Z,26.30
2018-02-23T21:09:52.711Z,26.20
2018-02-23T21:12:22.546Z,26.20
2018-02-23T21:14:53.891Z,26.20
2018-02-23T21:17:24.925Z,26.30
2018-02-23T21:19:54.957Z,26.30
2018-02-23T21:22:25.161Z,26.10
2018-02-23T21:24:55.214Z,26.10
2018-02-23T21:27:25.509Z,26.10
2018-02-23T21:29:55.925Z,26.40
2018-02-23T21:32:26.174Z,26.50
2018-02-23T21:34:56.067Z,26.20
2018-02-23T21:37:26.393Z,25.90
2018-02-23T21:39:56.702Z,25.90
2018-02-23T21:42:27.079Z,25.90
2018-02-23T21:44:57.894Z,26.20
2018-02-23T21:47:28.166Z,26.20
2018-02-23T21:49:59.702Z,26.30
2018-02-23T21:52:30.742Z,26.30
2018-02-23T21:55:02.009Z,26.30
2018-02-23T21:57:32.605Z,26.30
2018-02-23T22:00:03.085Z,26.00
2018-02-23T22:02:33.222Z,25.90
2018-02-23T22:05:03.469Z,25.90
2018-02-23T22:07:34.180Z,25.90
2018-02-23T22:10:04.542Z,25.90
2018-02-23T22:12:35.646Z,25.60
2018-02-23T22:15:05.905Z,25.60
2018-02-23T22:17:35.902Z,25.90
2018-02-23T22:20:06.227Z,26.20
2018-02-23T22:22:36.366Z,25.90
2018-02-23T22:25:07.268Z,25.60
2018-02-23T22:27:37.594Z,25.60
2018-02-23T22:30:08.019Z,25.40
2018-02-23T22:32:38.072Z,25.80
2018-02-23T22:35:09.995Z,26.10
2018-02-23T22:37:40.110Z,26.10
2018-02-23T22:40:10.937Z,25.80
2018-02-23T22:42:41.257Z,25.80
2018-02-23T22:45:11.283Z,25.70
2018-02-23T22:47:41.564Z,25.70
2018-02-23T22:50:13.191Z,26.30
2018-02-23T22:52:43.287Z,26.20
2018-02-23T22:55:12.945Z,26.10
2018-02-23T22:57:43.864Z,25.50
2018-02-23T23:00:13.948Z,25.50
2018-02-23T23:02:44.214Z,25.90
2018-02-23T23:05:14.977Z,25.70
2018-02-23T23:07:45.369Z,25.70
2018-02-23T23:10:15.458Z,25.60
2018-02-23T23:12:45.769Z,25.30
2018-02-23T23:15:16.496Z,25.20
2018-02-23T23:17:46.533Z,25.80
2018-02-23T23:20:16.918Z,25.80
2018-02-23T23:22:47.694Z,25.40
2018-02-23T23:25:18.013Z,25.60
2018-02-23T23:27:49.128Z,25.80
2018-02-23T23:30:19.587Z,25.80
2018-02-23T23:32:49.888Z,25.90
2018-02-23T23:35:19.840Z,25.50
2018-02-23T23:37:50.334Z,25.90
2018-02-23T23:40:20.750Z,26.00
2018-02-23T23:42:51.096Z,26.10
2018-02-23T23:45:21.894Z,26.30
2018-02-23T23:47:52.368Z,26.30
2018-02-23T23:50:24.698Z,26.10
2018-02-23T23:52:54.998Z,26.10
2018-02-23T23:55:26.047Z,25.90
2018-02-23T23:57:57.687Z,26.10
